Time;durP1;ratioP1;P1;durP2;ratioP2;P2;SDS_P1;SDS_P2;PMS_P1;PMS_P2;Temp;Humidity;BMP_temperature;BMP_pressure;BME280_temperature;BME280_humidity;BME280_pressure;Samples;Min_cycle;Max_cycle;Signal;HPM_P1;HPM_P2
2023/10/11 00:01:28;;;;;;;2.67;1.45;;;20.10;64.40;;;;;;4971921;28;20080;-19
2023/10/11 00:03:56;;;;;;;2.70;1.33;;;20.00;64.40;;;;;;4972693;28;20069;-18
2023/10/11 00:06:24;;;;;;;2.88;1.60;;;20.00;64.50;;;;;;4983521;28;20524;-20
2023/10/11 00:08:51;;;;;;;3.20;1.50;;;20.00;64.50;;;;;;4993424;28;20117;-18
2023/10/11 00:11:18;;;;;;;3.17;1.70;;;20.00;64.60;;;;;;4982778;28;20030;-18
2023/10/11 00:13:46;;;;;;;2.70;1.40;;;19.90;64.60;;;;;;4986109;28;20203;-18
2023/10/11 00:16:13;;;;;;;3.35;1.50;;;19.80;64.70;;;;;;4968625;28;20395;-20
2023/10/11 00:18:41;;;;;;;3.28;1.60;;;19.80;64.80;;;;;;4995083;28;20035;-18
2023/10/11 00:21:11;;;;;;;3.45;1.77;;;19.80;64.90;;;;;;4983488;28;20025;-19
2023/10/11 00:23:46;;;;;;;2.60;1.70;;;19.70;64.90;;;;;;4996883;28;20176;-18
2023/10/11 00:26:16;;;;;;;4.18;1.58;;;19.70;65.40;;;;;;4977818;28;20035;-20
2023/10/11 00:28:43;;;;;;;2.30;1.40;;;19.70;65.10;;;;;;4984763;28;20028;-19
2023/10/11 00:31:16;;;;;;;2.80;1.63;;;19.70;65.20;;;;;;4996078;28;20384;-19
2023/10/11 00:33:43;;;;;;;3.38;1.65;;;19.60;65.80;;;;;;4974522;28;20380;-19
2023/10/11 00:36:08;;;;;;;3.87;1.70;;;19.60;65.40;;;;;;4986243;28;20022;-19
2023/10/11 00:38:46;;;;;;;3.33;1.70;;;19.60;65.40;;;;;;4999135;28;20547;-21
2023/10/11 00:41:12;;;;;;;2.85;1.70;;;19.60;65.60;;;;;;4968400;28;20252;-19
2023/10/11 00:43:46;;;;;;;2.87;1.60;;;19.60;65.60;;;;;;4994235;28;20543;-19
2023/10/11 00:46:14;;;;;;;4.87;1.73;;;19.50;65.80;;;;;;4988820;28;20284;-19
2023/10/11 00:49:34;;;;;;;3.67;1.95;;;19.50;65.80;;;;;;4969246;28;20038;-19
2023/10/11 00:51:32;;;;;;;4.32;1.95;;;19.50;66.00;;;;;;4989767;28;20022;-19
2023/10/11 00:54:03;;;;;;;3.40;1.75;;;19.50;66.00;;;;;;4984684;28;20463;-19
2023/10/11 00:56:31;;;;;;;3.88;1.77;;;19.50;66.50;;;;;;4987593;28;20040;-18
2023/10/11 00:59:08;;;;;;;3.00;1.80;;;19.50;66.20;;;;;;4978231;28;20035;-20
2023/10/11 01:01:37;;;;;;;3.28;1.58;;;19.50;66.70;;;;;;4984288;28;20471;-19
2023/10/11 01:04:04;;;;;;;2.83;1.70;;;19.40;66.40;;;;;;4966276;28;20100;-20
2023/10/11 01:06:30;;;;;;;2.53;1.55;;;19.40;66.40;;;;;;4995908;28;20030;-18
2023/10/11 01:08:55;;;;;;;2.60;1.60;;;19.40;66.50;;;;;;4984012;28;20510;-19
2023/10/11 01:11:25;;;;;;;3.70;2.05;;;19.40;66.60;;;;;;4981023;28;20064;-19
2023/10/11 01:13:53;;;;;;;4.72;1.80;;;19.40;66.80;;;;;;4994668;28;20795;-18
2023/10/11 01:16:26;;;;;;;4.57;1.90;;;19.40;66.80;;;;;;4986519;28;20258;-18
2023/10/11 01:18:52;;;;;;;3.10;1.80;;;19.40;67.00;;;;;;4966183;28;20073;-19
2023/10/11 01:21:19;;;;;;;3.25;1.77;;;19.40;66.90;;;;;;4989020;28;20156;-18
2023/10/11 01:23:45;;;;;;;3.75;1.80;;;19.40;67.00;;;;;;4981554;28;20034;-20
2023/10/11 01:26:11;;;;;;;3.63;1.85;;;19.30;67.80;;;;;;4996059;28;20360;-18
2023/10/11 01:28:41;;;;;;;2.83;1.60;;;19.40;67.20;;;;;;4985970;28;20033;-18
2023/10/11 01:31:09;;;;;;;3.35;1.70;;;19.40;67.40;;;;;;4988448;28;20429;-18
2023/10/11 01:33:43;;;;;;;3.28;1.70;;;19.20;69.50;;;;;;4961854;28;20117;-18
2023/10/11 01:36:15;;;;;;;2.53;1.52;;;19.30;67.50;;;;;;4993637;28;20459;-18
2023/10/11 01:38:48;;;;;;;2.80;1.50;;;19.30;67.50;;;;;;4995787;28;20026;-18
2023/10/11 01:41:26;;;;;;;3.03;1.67;;;20.20;70.00;;;;;;4988604;28;20030;-18
2023/10/11 01:43:53;;;;;;;3.22;1.80;;;19.30;68.00;;;;;;4993721;28;20347;-20
2023/10/11 01:46:26;;;;;;;3.35;1.50;;;19.30;67.40;;;;;;4987166;28;20030;-19
2023/10/11 01:48:54;;;;;;;4.07;1.83;;;19.30;67.50;;;;;;4993566;28;20049;-18
2023/10/11 01:51:26;;;;;;;3.93;1.80;;;19.20;69.60;;;;;;4971575;28;20029;-19
2023/10/11 01:54:04;;;;;;;2.95;1.70;;;19.30;67.60;;;;;;5000211;28;20084;-19
2023/10/11 01:56:30;;;;;;;3.50;1.80;;;19.30;67.90;;;;;;4985666;28;20041;-19
2023/10/11 01:58:56;;;;;;;3.00;1.70;;;19.30;67.70;;;;;;4987251;28;20033;-19
2023/10/11 02:01:25;;;;;;;2.83;1.60;;;19.30;67.80;;;;;;4992241;28;20414;-18
2023/10/11 02:03:54;;;;;;;2.70;1.70;;;19.30;67.90;;;;;;4988962;28;20034;-19
2023/10/11 02:06:23;;;;;;;2.88;1.63;;;19.30;67.90;;;;;;4966364;28;20048;-18
2023/10/11 02:08:50;;;;;;;3.38;1.77;;;19.30;68.10;;;;;;4996860;28;20025;-19
2023/10/11 02:11:19;;;;;;;3.03;1.80;;;19.30;68.00;;;;;;4965486;28;20401;-19
2023/10/11 02:13:45;;;;;;;3.20;1.95;;;19.30;68.10;;;;;;4986418;28;20266;-20
2023/10/11 02:16:15;;;;;;;2.83;1.60;;;19.30;68.00;;;;;;4980228;28;20116;-19
2023/10/11 02:18:41;;;;;;;2.97;1.60;;;19.30;68.10;;;;;;4980350;28;23232;-20
2023/10/11 02:21:07;;;;;;;2.65;1.70;;;19.30;68.10;;;;;;4976429;28;20014;-19
2023/10/11 02:23:40;;;;;;;4.47;1.90;;;19.30;68.10;;;;;;4996046;28;20297;-18
2023/10/11 02:26:27;;;;;;;3.35;1.90;;;19.20;68.10;;;;;;4997014;28;20064;-18
2023/10/11 02:28:53;;;;;;;3.55;1.70;;;19.30;68.20;;;;;;4986442;28;20393;-19
2023/10/11 02:31:20;;;;;;;3.15;1.85;;;19.20;68.10;;;;;;4995596;28;20030;-18
2023/10/11 02:33:46;;;;;;;3.03;1.73;;;19.20;68.10;;;;;;4990273;28;20042;-18
2023/10/11 02:36:18;;;;;;;3.10;1.63;;;19.20;68.30;;;;;;4965787;28;20083;-18
2023/10/11 02:38:47;;;;;;;2.88;1.80;;;19.20;68.40;;;;;;4996694;28;20323;-19
2023/10/11 02:41:26;;;;;;;2.88;1.70;;;19.40;72.00;;;;;;4972760;28;20116;-19
2023/10/11 02:43:57;;;;;;;3.65;2.08;;;19.20;68.60;;;;;;4982156;28;20021;-19
2023/10/11 02:46:25;;;;;;;2.67;1.73;;;19.20;68.70;;;;;;4990660;28;20532;-19
2023/10/11 02:49:05;;;;;;;2.87;1.63;;;19.10;68.60;;;;;;4985867;28;20409;-19
2023/10/11 02:51:34;;;;;;;2.42;1.65;;;19.10;68.60;;;;;;4964852;28;20327;-19
2023/10/11 02:54:04;;;;;;;2.67;1.70;;;19.10;68.50;;;;;;5011749;28;20430;-19
2023/10/11 02:56:46;;;;;;;3.30;1.60;;;19.10;68.60;;;;;;4992828;28;20372;-19
2023/10/11 02:59:19;;;;;;;3.03;1.50;;;19.00;68.60;;;;;;4981647;28;20021;-18
2023/10/11 03:01:47;;;;;;;2.37;1.50;;;19.00;68.70;;;;;;4985388;28;20444;-19
2023/10/11 03:04:15;;;;;;;2.17;1.63;;;18.80;71.00;;;;;;4975622;28;20117;-20
2023/10/11 03:06:49;;;;;;;2.55;1.60;;;18.90;68.80;;;;;;4960112;28;20134;-21
2023/10/11 03:09:18;;;;;;;4.70;2.00;;;18.90;68.80;;;;;;4992985;28;20487;-19
2023/10/11 03:11:45;;;;;;;4.43;1.80;;;19.00;69.00;;;;;;4996989;28;20200;-19
2023/10/11 03:14:14;;;;;;;3.13;1.80;;;18.90;69.10;;;;;;4982421;28;20030;-18
2023/10/11 03:16:42;;;;;;;2.78;1.58;;;18.90;69.50;;;;;;4986869;28;20108;-20
2023/10/11 03:19:12;;;;;;;2.92;1.77;;;18.90;69.30;;;;;;4991389;28;20044;-19
2023/10/11 03:21:38;;;;;;;4.35;1.90;;;18.90;69.40;;;;;;4957870;28;20026;-18
2023/10/11 03:24:05;;;;;;;3.85;1.90;;;18.80;69.30;;;;;;4990881;28;20069;-19
2023/10/11 03:26:31;;;;;;;3.37;1.77;;;18.80;69.50;;;;;;4990921;28;20470;-19
2023/10/11 03:29:04;;;;;;;2.47;1.58;;;18.80;69.50;;;;;;4984082;28;20053;-19
2023/10/11 03:31:32;;;;;;;3.08;1.77;;;18.80;70.00;;;;;;4976487;28;20538;-19
2023/10/11 03:34:00;;;;;;;2.65;1.65;;;18.80;69.60;;;;;;4994421;28;20038;-18
2023/10/11 03:36:43;;;;;;;3.83;2.20;;;18.80;69.50;;;;;;4954841;28;20038;-19
2023/10/11 03:39:15;;;;;;;2.50;1.63;;;18.80;69.70;;;;;;4994851;28;20126;-19
2023/10/11 03:41:45;;;;;;;2.40;1.45;;;18.70;69.90;;;;;;4973589;28;20054;-21
2023/10/11 03:44:11;;;;;;;4.35;1.70;;;18.70;69.60;;;;;;4994294;28;20403;-18
2023/10/11 03:46:38;;;;;;;2.70;1.67;;;18.70;69.80;;;;;;4967861;28;20238;-19
2023/10/11 03:51:49;;;;;;;2.63;1.60;;;18.70;70.00;;;;;;4986526;28;20026;-18
2023/10/11 03:54:22;;;;;;;2.80;1.70;;;18.60;70.00;;;;;;4968869;28;20025;-20
2023/10/11 03:56:53;;;;;;;2.58;1.60;;;18.60;70.00;;;;;;4994412;28;20104;-19
2023/10/11 03:59:26;;;;;;;3.70;1.63;;;18.60;70.20;;;;;;4991115;28;20077;-19
2023/10/11 04:01:58;;;;;;;2.80;1.75;;;18.60;70.60;;;;;;4972140;28;20035;-19
2023/10/11 04:04:24;;;;;;;3.20;1.70;;;18.60;70.40;;;;;;5009881;28;20045;-18
2023/10/11 04:06:51;;;;;;;3.63;1.73;;;18.60;70.00;;;;;;4991160;28;20022;-20
2023/10/11 04:12:04;;;;;;;2.70;1.50;;;18.50;70.40;;;;;;4999479;28;20402;-19
2023/10/11 04:14:39;;;;;;;2.80;1.60;;;18.50;70.40;;;;;;4972102;28;20458;-19
2023/10/11 04:17:15;;;;;;;3.17;1.53;;;18.50;70.30;;;;;;4986799;28;20030;-18
2023/10/11 04:19:43;;;;;;;3.10;1.60;;;18.50;70.50;;;;;;4985288;28;20671;-19
2023/10/11 04:22:24;;;;;;;3.17;1.70;;;18.40;70.30;;;;;;4996238;28;20065;-19
2023/10/11 04:24:53;;;;;;;2.13;1.50;;;18.40;70.30;;;;;;4968668;28;20033;-18
2023/10/11 04:29:51;;;;;;;4.60;2.07;;;18.40;70.70;;;;;;5000310;28;20029;-18
2023/10/11 04:35:25;;;;;;;3.38;1.60;;;18.30;70.60;;;;;;4975418;28;20033;-19
2023/10/11 04:37:55;;;;;;;3.17;1.73;;;18.30;70.40;;;;;;4969338;28;20411;-19
2023/10/11 04:43:04;;;;;;;3.87;1.50;;;18.20;70.60;;;;;;4997783;28;20034;-19
2023/10/11 04:45:59;;;;;;;3.40;2.03;;;18.20;71.10;;;;;;4995841;28;20026;-18
2023/10/11 04:48:36;;;;;;;3.28;1.70;;;17.00;73.50;;;;;;4980710;28;20141;-18
2023/10/11 04:51:04;;;;;;;6.30;1.70;;;18.20;71.40;;;;;;4996817;28;20030;-18
2023/10/11 04:56:52;;;;;;;2.87;1.60;;;18.20;71.40;;;;;;4993274;28;20014;-18
2023/10/11 04:59:36;;;;;;;3.28;1.70;;;18.20;71.50;;;;;;4991412;28;20066;-21
2023/10/11 05:02:08;;;;;;;3.30;1.60;;;18.10;71.20;;;;;;4981725;28;20391;-18
2023/10/11 05:04:38;;;;;;;2.70;1.60;;;18.10;71.20;;;;;;4981275;28;20172;-18
2023/10/11 05:07:09;;;;;;;3.90;1.75;;;18.10;71.10;;;;;;4978353;28;20721;-19
2023/10/11 05:09:39;;;;;;;2.50;1.60;;;18.10;71.30;;;;;;4950412;28;22051;-18
2023/10/11 05:12:19;;;;;;;3.75;1.77;;;18.10;71.60;;;;;;4995903;28;20092;-18
2023/10/11 05:28:07;;;;;;;2.90;1.75;;;17.90;71.60;;;;;;4995315;28;20029;-18
2023/10/11 05:30:37;;;;;;;2.60;1.55;;;17.90;71.70;;;;;;4992843;28;20030;-19
2023/10/11 05:52:09;;;;;;;4.20;1.60;;;17.80;72.20;;;;;;4995171;28;20200;-18
2023/10/11 05:54:35;;;;;;;3.20;1.60;;;17.80;72.30;;;;;;4976045;28;20060;-19
2023/10/11 05:57:04;;;;;;;3.77;1.80;;;17.80;72.40;;;;;;4972532;28;20243;-18
2023/10/11 05:59:37;;;;;;;4.38;1.60;;;17.80;72.70;;;;;;4994022;28;20038;-19
2023/10/11 06:02:18;;;;;;;3.95;1.70;;;17.80;72.70;;;;;;4989105;28;20356;-19
2023/10/11 06:04:45;;;;;;;3.55;1.48;;;17.90;72.90;;;;;;4974820;28;20392;-18
2023/10/11 06:07:13;;;;;;;2.50;1.60;;;17.80;72.50;;;;;;4988027;28;20470;-21
2023/10/11 06:09:43;;;;;;;2.83;1.50;;;17.80;73.40;;;;;;4972070;28;20373;-18
2023/10/11 06:12:22;;;;;;;3.15;1.67;;;17.90;72.70;;;;;;4981362;28;20425;-20
2023/10/11 06:14:57;;;;;;;3.22;1.70;;;17.90;72.60;;;;;;4993759;28;20728;-19
2023/10/11 06:17:41;;;;;;;3.10;1.52;;;17.90;73.40;;;;;;4978654;28;20164;-19
2023/10/11 06:20:26;;;;;;;2.75;1.63;;;17.80;72.70;;;;;;4996582;28;20364;-19
2023/10/11 06:22:53;;;;;;;2.90;1.60;;;17.90;73.10;;;;;;4982910;28;20393;-20
2023/10/11 06:28:13;;;;;;;4.90;1.88;;;17.90;73.00;;;;;;4965015;28;20754;-18
2023/10/11 06:30:46;;;;;;;4.93;1.80;;;17.90;73.10;;;;;;4994492;28;20168;-18
2023/10/11 06:33:12;;;;;;;3.85;1.95;;;17.90;73.50;;;;;;4999545;28;20060;-19
2023/10/11 06:35:49;;;;;;;3.13;1.50;;;17.90;73.20;;;;;;4994350;28;20461;-18
2023/10/11 06:38:15;;;;;;;3.10;1.70;;;18.00;73.50;;;;;;4983152;28;20030;-18
2023/10/11 06:40:47;;;;;;;3.28;1.50;;;18.00;73.50;;;;;;4956582;28;20092;-19
2023/10/11 06:43:14;;;;;;;3.25;1.70;;;18.00;73.50;;;;;;4967864;28;20606;-20
2023/10/11 06:45:41;;;;;;;3.28;1.80;;;18.00;73.60;;;;;;4956776;28;20571;-20
2023/10/11 06:48:08;;;;;;;3.83;1.60;;;18.10;73.60;;;;;;4986448;28;20057;-19
2023/10/11 06:50:38;;;;;;;3.78;1.80;;;18.10;73.60;;;;;;4980500;28;20083;-20
2023/10/11 06:53:08;;;;;;;3.10;1.90;;;18.20;73.80;;;;;;4964570;28;20080;-18
2023/10/11 06:55:47;;;;;;;2.92;1.80;;;18.20;74.00;;;;;;4977724;28;20022;-19
2023/10/11 06:58:19;;;;;;;2.88;1.63;;;18.30;74.30;;;;;;4964870;28;20017;-20
2023/10/11 07:00:53;;;;;;;3.27;1.57;;;18.30;73.90;;;;;;4975512;28;20314;-18
2023/10/11 07:05:56;;;;;;;3.95;1.70;;;18.50;74.00;;;;;;4991879;28;20179;-19
2023/10/11 07:08:34;;;;;;;3.72;1.75;;;18.50;74.10;;;;;;4990117;28;20454;-19
2023/10/11 07:11:03;;;;;;;4.65;1.95;;;18.60;74.10;;;;;;4981193;28;20022;-18
2023/10/11 07:13:49;;;;;;;3.47;1.83;;;18.70;74.30;;;;;;4966612;28;20059;-19
2023/10/11 07:16:21;;;;;;;3.25;1.80;;;18.70;74.10;;;;;;4982756;28;20043;-18
2023/10/11 07:18:48;;;;;;;4.20;1.95;;;18.80;74.10;;;;;;4978616;28;20181;-19
2023/10/11 07:21:19;;;;;;;4.70;2.10;;;18.90;74.30;;;;;;4993465;28;20038;-18
2023/10/11 07:28:59;;;;;;;3.53;1.73;;;19.30;75.10;;;;;;4958790;28;20025;-19
2023/10/11 07:31:38;;;;;;;5.18;2.03;;;19.40;75.30;;;;;;4984526;28;20311;-19
2023/10/11 07:34:10;;;;;;;4.50;1.90;;;19.70;75.50;;;;;;4982717;28;20442;-20
2023/10/11 07:36:37;;;;;;;3.80;1.80;;;19.90;75.50;;;;;;5005290;28;20372;-19
2023/10/11 07:39:19;;;;;;;4.23;1.90;;;20.10;75.50;;;;;;4985588;28;20053;-21
2023/10/11 07:41:51;;;;;;;3.17;1.88;;;20.30;75.10;;;;;;4988880;28;20672;-20
2023/10/11 07:44:18;;;;;;;4.97;2.15;;;20.60;74.90;;;;;;4964386;28;20750;-19
2023/10/11 07:46:48;;;;;;;4.13;2.03;;;23.20;77.30;;;;;;4985569;28;20030;-20
2023/10/11 07:49:22;;;;;;;6.40;2.17;;;20.90;74.10;;;;;;4985670;28;20234;-19
2023/10/11 07:51:53;;;;;;;3.33;1.87;;;21.00;74.00;;;;;;4994218;28;20030;-20
2023/10/11 07:54:22;;;;;;;3.83;2.10;;;21.10;74.00;;;;;;4995984;28;20392;-19
2023/10/11 07:56:55;;;;;;;4.20;2.10;;;21.30;73.60;;;;;;4967988;28;20104;-19
2023/10/11 07:59:26;;;;;;;3.88;2.00;;;21.50;73.10;;;;;;4960474;28;20113;-19
2023/10/11 08:01:56;;;;;;;6.10;2.10;;;21.50;72.90;;;;;;4984398;28;20069;-19
2023/10/11 08:04:27;;;;;;;4.43;2.10;;;21.60;72.30;;;;;;4986030;28;20501;-21
2023/10/11 08:07:02;;;;;;;3.30;2.03;;;21.60;72.00;;;;;;4992300;28;20033;-19
2023/10/11 08:09:34;;;;;;;6.25;2.30;;;21.60;71.70;;;;;;4993284;28;20486;-18
2023/10/11 08:12:00;;;;;;;6.25;2.67;;;21.60;71.50;;;;;;4992830;28;20072;-18
2023/10/11 08:14:29;;;;;;;5.05;2.30;;;21.60;71.30;;;;;;4962557;28;20270;-18
2023/10/11 08:17:10;;;;;;;4.23;2.07;;;21.50;71.30;;;;;;4986976;28;20406;-21
2023/10/11 08:19:36;;;;;;;4.63;2.30;;;21.50;71.50;;;;;;4987507;28;23044;-19
2023/10/11 08:22:09;;;;;;;4.45;2.33;;;21.50;71.80;;;;;;5000057;28;20040;-19
2023/10/11 08:24:46;;;;;;;4.80;2.50;;;21.50;72.00;;;;;;4988235;28;20022;-21
2023/10/11 08:27:13;;;;;;;4.65;2.40;;;21.50;72.30;;;;;;4988807;28;20026;-20
2023/10/11 08:29:43;;;;;;;4.87;2.50;;;21.60;72.30;;;;;;4970183;28;20510;-20
2023/10/11 08:32:13;;;;;;;7.03;2.63;;;21.70;72.20;;;;;;4965088;28;20101;-19
2023/10/11 08:34:46;;;;;;;4.38;2.50;;;21.70;72.10;;;;;;4983808;28;20446;-20
2023/10/11 08:37:14;;;;;;;5.38;2.85;;;21.70;71.70;;;;;;4995246;28;20041;-20
2023/10/11 08:39:46;;;;;;;5.55;2.83;;;21.70;71.40;;;;;;4988344;28;20042;-18
2023/10/11 08:42:14;;;;;;;7.10;2.87;;;21.70;71.80;;;;;;4988329;28;20026;-19
2023/10/11 08:44:45;;;;;;;4.78;2.70;;;21.80;72.70;;;;;;4982969;28;20033;-21
2023/10/11 08:47:16;;;;;;;6.03;3.05;;;21.90;73.60;;;;;;4970777;28;20494;-19
2023/10/11 08:49:48;;;;;;;4.93;2.78;;;22.00;74.50;;;;;;4984392;28;20084;-19
2023/10/11 08:52:21;;;;;;;4.82;2.80;;;22.40;75.20;;;;;;4988042;28;20554;-19
2023/10/11 08:54:48;;;;;;;5.03;2.93;;;22.70;75.40;;;;;;4980940;28;20141;-18
2023/10/11 08:57:14;;;;;;;4.20;2.58;;;23.10;76.40;;;;;;4986437;28;20460;-19
2023/10/11 08:59:50;;;;;;;4.80;2.90;;;23.50;76.60;;;;;;4981591;28;20056;-19
2023/10/11 09:02:17;;;;;;;5.82;2.92;;;23.90;74.60;;;;;;4957302;28;20038;-19
2023/10/11 09:07:57;;;;;;;4.87;2.80;;;24.70;73.10;;;;;;4977627;28;20034;-19
2023/10/11 09:10:33;;;;;;;4.88;2.88;;;25.10;75.20;;;;;;4980718;28;20085;-19
2023/10/11 09:13:01;;;;;;;6.20;3.08;;;25.50;73.60;;;;;;4987786;28;20738;-20
2023/10/11 09:15:40;;;;;;;5.90;3.45;;;25.80;73.80;;;;;;4993320;28;20026;-18
2023/10/11 09:18:14;;;;;;;6.07;3.50;;;26.10;71.60;;;;;;4960961;28;20427;-21
2023/10/11 09:20:41;;;;;;;7.10;3.73;;;26.20;70.00;;;;;;4961618;28;20034;-19
2023/10/11 09:23:08;;;;;;;5.93;3.50;;;26.10;69.10;;;;;;4993203;28;20176;-19
2023/10/11 09:25:59;;;;;;;6.45;3.70;;;26.00;68.70;;;;;;4991688;28;20553;-18
2023/10/11 09:28:28;;;;;;;6.03;3.80;;;25.90;67.50;;;;;;4989435;28;20029;-20
2023/10/11 09:31:09;;;;;;;5.78;3.97;;;25.90;67.60;;;;;;4970097;28;20026;-19
2023/10/11 09:33:38;;;;;;;6.77;3.90;;;25.80;67.30;;;;;;4961041;28;20038;-19
2023/10/11 09:36:06;;;;;;;6.95;4.00;;;25.80;69.00;;;;;;4994010;28;20738;-19
2023/10/11 09:38:39;;;;;;;7.30;3.83;;;25.90;69.80;;;;;;4981201;28;20026;-18
2023/10/11 09:41:08;;;;;;;7.10;3.72;;;26.00;70.00;;;;;;4984517;28;20498;-18
2023/10/11 09:44:00;;;;;;;6.93;3.80;;;26.20;70.20;;;;;;4990034;28;20037;-19
2023/10/11 09:46:30;;;;;;;6.20;3.67;;;26.50;68.80;;;;;;4962688;28;20132;-19
2023/10/11 09:48:59;;;;;;;7.70;3.85;;;26.70;70.10;;;;;;4982304;28;20053;-19
2023/10/11 09:51:26;;;;;;;8.48;3.50;;;27.00;70.20;;;;;;4966560;28;20490;-19
2023/10/11 09:53:53;;;;;;;6.60;3.95;;;27.20;70.20;;;;;;4969315;28;20801;-18
2023/10/11 09:56:25;;;;;;;6.85;3.83;;;27.40;69.70;;;;;;4988191;28;20022;-20
2023/10/11 09:59:22;;;;;;;7.03;3.80;;;27.70;68.20;;;;;;4990552;28;20085;-19
2023/10/11 10:02:24;;;;;;;6.43;4.25;;;27.80;66.20;;;;;;4985207;28;20356;-19
2023/10/11 10:04:50;;;;;;;7.70;3.85;;;28.00;66.20;;;;;;4963917;28;20324;-19
2023/10/11 10:07:22;;;;;;;7.03;4.00;;;28.10;67.60;;;;;;4993899;28;20038;-20
2023/10/11 10:09:53;;;;;;;7.85;4.25;;;28.20;67.20;;;;;;4985389;28;20237;-19
2023/10/11 10:12:25;;;;;;;5.78;3.83;;;28.40;67.20;;;;;;4989450;28;20026;-19
2023/10/11 10:15:12;;;;;;;5.97;4.18;;;28.50;65.70;;;;;;4993448;28;20390;-19
2023/10/11 10:17:38;;;;;;;8.35;4.00;;;28.60;64.40;;;;;;4983194;28;20222;-22
2023/10/11 10:20:33;;;;;;;7.23;4.00;;;28.70;66.50;;;;;;4980397;28;20040;-20
2023/10/11 10:23:16;;;;;;;7.35;3.92;;;28.80;64.80;;;;;;4991154;28;20026;-19
2023/10/11 10:26:11;;;;;;;8.65;4.30;;;29.00;64.60;;;;;;4984296;28;20333;-19
2023/10/11 10:28:36;;;;;;;6.43;4.00;;;29.20;65.30;;;;;;4987807;28;20034;-19
2023/10/11 10:31:21;;;;;;;6.07;4.00;;;29.50;65.80;;;;;;4995772;28;20045;-19
2023/10/11 10:33:49;;;;;;;7.78;4.03;;;29.60;63.90;;;;;;4984877;28;20029;-19
2023/10/11 10:36:21;;;;;;;5.82;3.85;;;29.90;65.50;;;;;;4972974;28;20481;-20
2023/10/11 10:42:15;;;;;;;5.83;4.03;;;30.30;63.30;;;;;;4955123;28;20473;-19
2023/10/11 10:44:52;;;;;;;5.93;3.70;;;30.60;63.20;;;;;;4988431;28;20028;-19
2023/10/11 10:47:28;;;;;;;7.40;3.95;;;30.80;62.80;;;;;;4972282;28;20320;-20
2023/10/11 10:49:56;;;;;;;8.00;4.20;;;31.00;62.60;;;;;;4963014;28;20527;-19
2023/10/11 10:52:32;;;;;;;7.88;4.82;;;31.10;62.50;;;;;;4946853;28;20061;-20
2023/10/11 10:55:02;;;;;;;7.13;4.57;;;31.20;61.20;;;;;;4975552;28;20415;-20
2023/10/11 10:57:31;;;;;;;6.82;3.95;;;31.30;61.00;;;;;;4973118;28;20344;-20
2023/10/11 11:00:21;;;;;;;6.93;4.20;;;31.40;60.80;;;;;;4987544;28;20033;-20
2023/10/11 11:02:47;;;;;;;7.68;4.75;;;31.40;60.10;;;;;;5005087;28;20037;-20
2023/10/11 11:05:24;;;;;;;8.43;4.65;;;31.40;60.10;;;;;;4967898;28;20751;-19
2023/10/11 11:07:49;;;;;;;5.80;4.00;;;31.30;59.60;;;;;;4962512;28;20214;-18
2023/10/11 11:10:21;;;;;;;7.13;4.50;;;31.30;59.20;;;;;;4945003;28;20387;-19
2023/10/11 11:12:48;;;;;;;7.07;3.95;;;31.20;58.10;;;;;;4959049;28;20069;-21
2023/10/11 11:15:20;;;;;;;7.13;4.38;;;31.20;58.80;;;;;;4984357;28;20030;-20
2023/10/11 11:17:51;;;;;;;7.13;4.10;;;31.20;58.70;;;;;;4960904;28;20124;-19
2023/10/11 11:22:46;;;;;;;6.90;3.75;;;31.20;59.10;;;;;;4952008;28;20056;-20
2023/10/11 11:28:29;;;;;;;5.80;3.83;;;31.50;59.30;;;;;;4978409;28;20042;-20
2023/10/11 11:30:54;;;;;;;8.03;3.93;;;31.70;58.10;;;;;;4986485;28;20511;-19
2023/10/11 11:33:28;;;;;;;7.40;4.70;;;31.90;58.90;;;;;;4995132;28;20033;-20
2023/10/11 11:35:55;;;;;;;7.93;4.30;;;32.00;57.90;;;;;;4967863;28;20045;-19
2023/10/11 11:38:21;;;;;;;6.60;4.10;;;32.00;58.30;;;;;;4954660;28;20120;-19
2023/10/11 11:40:51;;;;;;;10.27;3.88;;;32.00;57.00;;;;;;4980930;28;20388;-18
2023/10/11 11:43:19;;;;;;;7.57;3.78;;;32.00;56.90;;;;;;4981029;28;20447;-19
2023/10/11 11:45:57;;;;;;;7.57;4.07;;;32.00;56.70;;;;;;4982809;28;20451;-20
2023/10/11 11:48:25;;;;;;;5.70;3.72;;;32.00;55.80;;;;;;4990029;28;20474;-20
2023/10/11 11:50:55;;;;;;;6.83;4.33;;;31.90;56.00;;;;;;4979306;28;20037;-19
2023/10/11 11:53:21;;;;;;;6.25;3.80;;;31.80;56.00;;;;;;4967204;28;20442;-18
2023/10/11 11:55:47;;;;;;;7.53;4.00;;;31.70;56.10;;;;;;4969538;28;20045;-20
2023/10/11 11:58:16;;;;;;;6.50;3.87;;;31.60;55.90;;;;;;4977560;28;20061;-20
2023/10/11 12:00:45;;;;;;;6.03;3.40;;;31.50;55.90;;;;;;4988815;28;20025;-20
2023/10/11 12:03:12;;;;;;;9.48;3.65;;;31.40;55.90;;;;;;4973562;28;20243;-18
2023/10/11 12:05:40;;;;;;;7.45;3.70;;;31.40;55.50;;;;;;4978207;28;20030;-22
2023/10/11 12:08:21;;;;;;;7.55;3.70;;;31.30;55.70;;;;;;4963787;28;20030;-20
2023/10/11 12:10:49;;;;;;;6.20;3.60;;;31.20;55.30;;;;;;4983832;28;20476;-21
2023/10/11 12:13:26;;;;;;;5.85;3.28;;;31.10;55.30;;;;;;4969554;28;20522;-20
2023/10/11 12:15:55;;;;;;;7.35;3.90;;;31.00;54.70;;;;;;4989911;28;20566;-21
2023/10/11 12:18:32;;;;;;;6.53;3.75;;;30.90;55.30;;;;;;4994948;28;20060;-21
2023/10/11 12:21:10;;;;;;;6.97;3.15;;;30.70;54.20;;;;;;4979036;28;20123;-20
2023/10/11 12:23:46;;;;;;;7.43;3.40;;;30.50;54.20;;;;;;4965796;28;20430;-18
2023/10/11 12:26:12;;;;;;;6.35;3.35;;;30.30;54.30;;;;;;4988230;28;20296;-19
2023/10/11 12:28:39;;;;;;;5.60;3.30;;;30.20;54.70;;;;;;4993137;28;20022;-21
2023/10/11 12:31:04;;;;;;;6.90;3.67;;;30.10;55.40;;;;;;4973263;28;20037;-19
2023/10/11 12:33:30;;;;;;;6.43;3.47;;;30.00;55.80;;;;;;4994922;28;20539;-18
2023/10/11 12:35:56;;;;;;;5.53;3.00;;;30.10;56.30;;;;;;4982736;28;20037;-19
2023/10/11 12:38:23;;;;;;;6.43;3.33;;;30.20;56.70;;;;;;4990385;28;20066;-22
2023/10/11 12:40:49;;;;;;;5.73;3.00;;;30.30;57.00;;;;;;4961746;28;20021;-19
2023/10/11 12:43:15;;;;;;;5.13;3.00;;;30.50;56.70;;;;;;4994180;28;20030;-19
2023/10/11 12:45:42;;;;;;;5.30;2.80;;;30.60;56.30;;;;;;4985083;28;20538;-19
2023/10/11 12:48:10;;;;;;;4.40;2.80;;;30.60;55.90;;;;;;5005511;28;20146;-20
2023/10/11 12:50:39;;;;;;;5.25;2.78;;;30.70;55.40;;;;;;4974652;28;20104;-19
2023/10/11 12:53:11;;;;;;;5.75;2.72;;;30.60;54.70;;;;;;4983590;28;20032;-19
2023/10/11 12:55:42;;;;;;;5.20;2.65;;;30.40;54.00;;;;;;4954136;28;20070;-20
2023/10/11 12:58:11;;;;;;;6.75;3.00;;;30.10;54.10;;;;;;4982738;28;20239;-21
2023/10/11 13:00:47;;;;;;;6.73;2.73;;;29.60;54.30;;;;;;5017863;23;20549;-19
2023/10/11 13:04:06;;;;;;;5.32;2.60;;;29.70;54.80;;;;;;5026735;28;20142;-18
2023/10/11 13:06:03;;;;;;;5.72;2.80;;;29.60;55.10;;;;;;5002391;28;20068;-19
2023/10/11 13:08:29;;;;;;;6.43;2.70;;;29.50;55.40;;;;;;5017106;28;20683;-18
2023/10/11 13:10:55;;;;;;;6.10;2.85;;;29.50;55.80;;;;;;4996958;28;20029;-18
2023/10/11 13:13:23;;;;;;;5.63;2.60;;;29.60;55.50;;;;;;5028609;28;20068;-18
2023/10/11 13:16:00;;;;;;;4.15;2.63;;;29.50;55.30;;;;;;5002674;28;20037;-18
2023/10/11 13:18:37;;;;;;;5.28;2.63;;;29.40;55.40;;;;;;4998787;28;20067;-18
2023/10/11 13:21:05;;;;;;;4.47;2.47;;;29.40;55.40;;;;;;5020547;28;20040;-18
2023/10/11 13:23:31;;;;;;;6.22;2.95;;;29.40;55.70;;;;;;5004691;28;20033;-23
2023/10/11 13:26:08;;;;;;;4.37;2.50;;;29.40;55.70;;;;;;5002323;28;20036;-19
2023/10/11 13:28:39;;;;;;;4.95;2.70;;;29.40;55.40;;;;;;5026607;28;20060;-19
2023/10/11 13:31:05;;;;;;;6.10;2.45;;;29.40;55.30;;;;;;5018413;28;20040;-19
2023/10/11 13:33:32;;;;;;;4.33;2.40;;;29.50;55.40;;;;;;5020973;28;20037;-19
2023/10/11 13:35:58;;;;;;;5.53;2.40;;;29.50;55.50;;;;;;5019639;28;20036;-18
2023/10/11 13:38:24;;;;;;;8.00;2.60;;;29.50;55.50;;;;;;5023041;28;20041;-19
2023/10/11 13:40:52;;;;;;;4.63;2.28;;;29.60;55.60;;;;;;5020821;28;20083;-20
2023/10/11 13:43:21;;;;;;;6.50;2.67;;;29.70;56.20;;;;;;5023414;28;20668;-18
2023/10/11 13:45:48;;;;;;;5.07;2.57;;;29.70;55.10;;;;;;5028857;28;20371;-19
2023/10/11 13:48:14;;;;;;;5.47;2.40;;;29.70;54.70;;;;;;5001729;28;20124;-18
2023/10/11 13:50:49;;;;;;;5.38;2.10;;;29.70;54.80;;;;;;5010467;28;20037;-18
2023/10/11 13:53:15;;;;;;;7.00;2.28;;;29.70;54.40;;;;;;5010315;28;20032;-19
2023/10/11 13:55:42;;;;;;;6.00;3.05;;;29.70;54.30;;;;;;5015844;28;20561;-18
2023/10/11 13:58:09;;;;;;;5.90;2.70;;;29.70;54.00;;;;;;4993266;28;21715;-18
2023/10/11 14:05:41;;;;;;;4.95;2.40;;;29.50;53.90;;;;;;5009382;28;20678;-20
2023/10/11 14:08:25;;;;;;;4.22;2.08;;;29.40;54.30;;;;;;5009664;28;20573;-18
2023/10/11 14:10:54;;;;;;;6.53;2.30;;;29.40;54.50;;;;;;5003146;28;20018;-19
2023/10/11 14:13:24;;;;;;;3.28;2.30;;;29.40;54.00;;;;;;5008256;28;20045;-18
2023/10/11 14:15:57;;;;;;;3.70;2.03;;;29.40;54.20;;;;;;5017838;28;20021;-18
2023/10/11 14:18:27;;;;;;;5.78;2.25;;;29.30;53.60;;;;;;5028276;28;20114;-18
2023/10/11 14:20:56;;;;;;;4.80;2.00;;;29.30;53.70;;;;;;5001673;28;20112;-18
2023/10/11 14:23:27;;;;;;;4.20;2.17;;;29.20;53.50;;;;;;5026698;28;20072;-20
2023/10/11 14:25:56;;;;;;;4.47;2.15;;;29.10;53.40;;;;;;5015564;28;21728;-18